sensor_id;sensor_type;location;lat;lon;timestamp;temperature;humidity
51175;DHT22;37240;50.104;20.010;2023-12-29T00:03:49;10.50;92.60
51175;DHT22;37240;50.104;20.010;2023-12-29T00:08:49;10.50;93.00
51175;DHT22;37240;50.104;20.010;2023-12-29T00:13:50;10.50;92.80
51175;DHT22;37240;50.104;20.010;2023-12-29T00:18:50;10.40;93.00
51175;DHT22;37240;50.104;20.010;2023-12-29T00:23:51;10.50;92.90
51175;DHT22;37240;50.104;20.010;2023-12-29T00:28:51;10.30;93.20
51175;DHT22;37240;50.104;20.010;2023-12-29T00:33:53;10.40;93.30
51175;DHT22;37240;50.104;20.010;2023-12-29T00:38:53;10.60;93.40
51175;DHT22;37240;50.104;20.010;2023-12-29T00:43:54;10.50;93.60
51175;DHT22;37240;50.104;20.010;2023-12-29T00:48:54;10.60;94.10
51175;DHT22;37240;50.104;20.010;2023-12-29T00:53:55;10.70;93.80
51175;DHT22;37240;50.104;20.010;2023-12-29T00:58:55;10.50;94.00
51175;DHT22;37240;50.104;20.010;2023-12-29T01:03:56;10.70;93.90
51175;DHT22;37240;50.104;20.010;2023-12-29T01:08:56;10.70;94.10
51175;DHT22;37240;50.104;20.010;2023-12-29T01:13:57;10.60;94.30
51175;DHT22;37240;50.104;20.010;2023-12-29T01:18:57;10.60;94.30
51175;DHT22;37240;50.104;20.010;2023-12-29T01:23:58;10.50;94.50
51175;DHT22;37240;50.104;20.010;2023-12-29T01:28:58;10.50;94.60
51175;DHT22;37240;50.104;20.010;2023-12-29T01:33:59;10.50;94.60
51175;DHT22;37240;50.104;20.010;2023-12-29T01:39:00;10.50;94.70
51175;DHT22;37240;50.104;20.010;2023-12-29T01:49:01;10.50;94.80
51175;DHT22;37240;50.104;20.010;2023-12-29T01:54:01;10.50;94.80
51175;DHT22;37240;50.104;20.010;2023-12-29T01:59:02;10.40;94.70
51175;DHT22;37240;50.104;20.010;2023-12-29T02:04:03;10.40;95.10
51175;DHT22;37240;50.104;20.010;2023-12-29T02:09:04;10.40;95.00
51175;DHT22;37240;50.104;20.010;2023-12-29T02:14:04;10.40;95.30
51175;DHT22;37240;50.104;20.010;2023-12-29T02:19:19;10.30;95.50
51175;DHT22;37240;50.104;20.010;2023-12-29T02:24:21;10.30;95.60
51175;DHT22;37240;50.104;20.010;2023-12-29T02:29:23;10.30;95.70
51175;DHT22;37240;50.104;20.010;2023-12-29T02:34:25;10.30;95.90
51175;DHT22;37240;50.104;20.010;2023-12-29T02:39:27;10.30;95.80
51175;DHT22;37240;50.104;20.010;2023-12-29T02:44:28;10.30;96.00
51175;DHT22;37240;50.104;20.010;2023-12-29T02:49:29;10.30;96.20
51175;DHT22;37240;50.104;20.010;2023-12-29T02:54:29;10.30;96.00
51175;DHT22;37240;50.104;20.010;2023-12-29T02:59:30;10.30;96.20
51175;DHT22;37240;50.104;20.010;2023-12-29T03:04:30;10.20;96.80
51175;DHT22;37240;50.104;20.010;2023-12-29T03:09:31;10.20;96.60
51175;DHT22;37240;50.104;20.010;2023-12-29T03:14:31;10.10;96.70
51175;DHT22;37240;50.104;20.010;2023-12-29T03:19:32;10.00;96.80
51175;DHT22;37240;50.104;20.010;2023-12-29T03:24:32;10.10;96.80
51175;DHT22;37240;50.104;20.010;2023-12-29T03:29:33;10.00;96.80
51175;DHT22;37240;50.104;20.010;2023-12-29T03:34:34;9.90;96.80
51175;DHT22;37240;50.104;20.010;2023-12-29T03:39:34;9.90;97.40
51175;DHT22;37240;50.104;20.010;2023-12-29T03:44:35;9.90;97.40
51175;DHT22;37240;50.104;20.010;2023-12-29T03:49:35;9.90;97.20
51175;DHT22;37240;50.104;20.010;2023-12-29T03:54:36;9.90;97.30
51175;DHT22;37240;50.104;20.010;2023-12-29T03:59:37;9.90;97.20
51175;DHT22;37240;50.104;20.010;2023-12-29T04:04:38;9.90;97.30
51175;DHT22;37240;50.104;20.010;2023-12-29T04:09:38;9.80;97.60
51175;DHT22;37240;50.104;20.010;2023-12-29T04:14:39;9.90;97.60
51175;DHT22;37240;50.104;20.010;2023-12-29T04:19:42;9.80;97.60
51175;DHT22;37240;50.104;20.010;2023-12-29T04:24:42;9.80;98.00
51175;DHT22;37240;50.104;20.010;2023-12-29T04:29:44;9.70;98.10
51175;DHT22;37240;50.104;20.010;2023-12-29T04:34:44;9.60;98.30
51175;DHT22;37240;50.104;20.010;2023-12-29T04:39:45;9.60;98.50
51175;DHT22;37240;50.104;20.010;2023-12-29T04:44:45;9.60;98.40
51175;DHT22;37240;50.104;20.010;2023-12-29T04:49:46;9.60;98.30
51175;DHT22;37240;50.104;20.010;2023-12-29T04:54:46;9.50;98.50
51175;DHT22;37240;50.104;20.010;2023-12-29T04:59:47;9.50;98.70
51175;DHT22;37240;50.104;20.010;2023-12-29T05:04:47;9.50;98.70
51175;DHT22;37240;50.104;20.010;2023-12-29T05:09:48;9.50;98.60
51175;DHT22;37240;50.104;20.010;2023-12-29T05:14:48;9.50;98.90
51175;DHT22;37240;50.104;20.010;2023-12-29T05:19:49;9.50;98.80
51175;DHT22;37240;50.104;20.010;2023-12-29T05:24:49;9.60;98.90
51175;DHT22;37240;50.104;20.010;2023-12-29T05:29:50;9.70;99.00
51175;DHT22;37240;50.104;20.010;2023-12-29T05:34:50;9.70;99.30
51175;DHT22;37240;50.104;20.010;2023-12-29T05:39:51;9.70;99.20
51175;DHT22;37240;50.104;20.010;2023-12-29T05:44:51;9.80;99.10
51175;DHT22;37240;50.104;20.010;2023-12-29T05:49:52;9.80;99.10
51175;DHT22;37240;50.104;20.010;2023-12-29T05:54:52;9.70;99.20
51175;DHT22;37240;50.104;20.010;2023-12-29T05:59:53;9.80;99.20
51175;DHT22;37240;50.104;20.010;2023-12-29T06:04:53;9.70;99.10
51175;DHT22;37240;50.104;20.010;2023-12-29T06:09:54;9.80;99.00
51175;DHT22;37240;50.104;20.010;2023-12-29T06:14:54;9.80;99.20
51175;DHT22;37240;50.104;20.010;2023-12-29T06:19:55;9.80;99.10
51175;DHT22;37240;50.104;20.010;2023-12-29T06:24:55;9.90;99.00
51175;DHT22;37240;50.104;20.010;2023-12-29T06:29:56;9.90;99.00
51175;DHT22;37240;50.104;20.010;2023-12-29T06:34:56;10.00;98.90
51175;DHT22;37240;50.104;20.010;2023-12-29T06:39:57;10.00;98.70
51175;DHT22;37240;50.104;20.010;2023-12-29T06:44:58;10.10;98.60
51175;DHT22;37240;50.104;20.010;2023-12-29T06:49:58;10.10;98.70
51175;DHT22;37240;50.104;20.010;2023-12-29T06:54:59;10.10;98.70
51175;DHT22;37240;50.104;20.010;2023-12-29T07:00:00;10.10;98.60
51175;DHT22;37240;50.104;20.010;2023-12-29T07:05:00;10.10;98.70
51175;DHT22;37240;50.104;20.010;2023-12-29T07:10:01;10.20;98.60
51175;DHT22;37240;50.104;20.010;2023-12-29T07:15:01;10.20;98.30
51175;DHT22;37240;50.104;20.010;2023-12-29T07:20:02;10.30;98.10
51175;DHT22;37240;50.104;20.010;2023-12-29T07:25:03;10.30;97.70
51175;DHT22;37240;50.104;20.010;2023-12-29T07:30:04;10.40;97.40
51175;DHT22;37240;50.104;20.010;2023-12-29T07:35:04;10.40;97.20
51175;DHT22;37240;50.104;20.010;2023-12-29T07:40:06;10.50;98.30
51175;DHT22;37240;50.104;20.010;2023-12-29T07:45:07;10.60;97.90
51175;DHT22;37240;50.104;20.010;2023-12-29T07:50:07;10.70;98.10
51175;DHT22;37240;50.104;20.010;2023-12-29T07:55:08;10.90;98.10
51175;DHT22;37240;50.104;20.010;2023-12-29T08:00:09;11.10;98.10
51175;DHT22;37240;50.104;20.010;2023-12-29T08:05:10;11.10;97.80
51175;DHT22;37240;50.104;20.010;2023-12-29T08:10:10;11.30;98.00
51175;DHT22;37240;50.104;20.010;2023-12-29T08:15:11;11.50;97.80
51175;DHT22;37240;50.104;20.010;2023-12-29T08:20:12;11.70;97.50
51175;DHT22;37240;50.104;20.010;2023-12-29T08:25:12;12.00;97.30
51175;DHT22;37240;50.104;20.010;2023-12-29T08:30:13;12.20;96.80
51175;DHT22;37240;50.104;20.010;2023-12-29T08:35:14;12.50;96.40
51175;DHT22;37240;50.104;20.010;2023-12-29T08:40:14;12.80;96.00
51175;DHT22;37240;50.104;20.010;2023-12-29T08:45:15;13.10;95.60
51175;DHT22;37240;50.104;20.010;2023-12-29T08:50:15;13.30;94.60
51175;DHT22;37240;50.104;20.010;2023-12-29T08:55:16;13.50;94.40
51175;DHT22;37240;50.104;20.010;2023-12-29T09:00:17;13.60;93.70
51175;DHT22;37240;50.104;20.010;2023-12-29T09:05:17;13.90;93.50
51175;DHT22;37240;50.104;20.010;2023-12-29T09:10:18;14.00;93.00
51175;DHT22;37240;50.104;20.010;2023-12-29T09:15:18;14.10;92.40
51175;DHT22;37240;50.104;20.010;2023-12-29T09:20:19;14.10;91.80
51175;DHT22;37240;50.104;20.010;2023-12-29T09:25:19;14.20;91.20
51175;DHT22;37240;50.104;20.010;2023-12-29T09:30:20;14.30;91.00
51175;DHT22;37240;50.104;20.010;2023-12-29T09:35:21;14.30;90.40
51175;DHT22;37240;50.104;20.010;2023-12-29T09:40:21;14.30;88.90
51175;DHT22;37240;50.104;20.010;2023-12-29T09:45:23;14.20;87.40
51175;DHT22;37240;50.104;20.010;2023-12-29T09:50:25;14.10;86.90
51175;DHT22;37240;50.104;20.010;2023-12-29T09:55:27;14.00;86.80
51175;DHT22;37240;50.104;20.010;2023-12-29T10:00:28;14.10;87.40
51175;DHT22;37240;50.104;20.010;2023-12-29T10:05:28;14.00;86.80
51175;DHT22;37240;50.104;20.010;2023-12-29T10:10:30;14.00;87.20
51175;DHT22;37240;50.104;20.010;2023-12-29T10:15:47;14.00;86.40
51175;DHT22;37240;50.104;20.010;2023-12-29T10:21:02;14.00;86.50
51175;DHT22;37240;50.104;20.010;2023-12-29T10:26:07;14.00;86.40
51175;DHT22;37240;50.104;20.010;2023-12-29T10:31:14;14.00;85.80
51175;DHT22;37240;50.104;20.010;2023-12-29T10:36:15;13.90;85.70
51175;DHT22;37240;50.104;20.010;2023-12-29T10:41:17;14.00;86.10
51175;DHT22;37240;50.104;20.010;2023-12-29T10:46:18;14.10;86.20
51175;DHT22;37240;50.104;20.010;2023-12-29T10:51:26;14.00;86.10
51175;DHT22;37240;50.104;20.010;2023-12-29T10:56:27;14.10;86.10
51175;DHT22;37240;50.104;20.010;2023-12-29T11:01:28;14.10;85.00
51175;DHT22;37240;50.104;20.010;2023-12-29T11:06:29;14.00;84.50
51175;DHT22;37240;50.104;20.010;2023-12-29T11:11:30;14.20;84.60
51175;DHT22;37240;50.104;20.010;2023-12-29T11:16:31;14.20;84.50
51175;DHT22;37240;50.104;20.010;2023-12-29T11:21:33;14.20;83.20
51175;DHT22;37240;50.104;20.010;2023-12-29T11:26:35;14.20;83.40
51175;DHT22;37240;50.104;20.010;2023-12-29T11:31:38;14.20;83.10
51175;DHT22;37240;50.104;20.010;2023-12-29T11:36:44;14.20;83.40
51175;DHT22;37240;50.104;20.010;2023-12-29T11:41:56;14.20;83.80
51175;DHT22;37240;50.104;20.010;2023-12-29T11:47:02;14.20;84.40
51175;DHT22;37240;50.104;20.010;2023-12-29T11:52:03;14.20;84.80
51175;DHT22;37240;50.104;20.010;2023-12-29T11:57:03;14.30;84.60
51175;DHT22;37240;50.104;20.010;2023-12-29T12:02:27;14.30;84.60
51175;DHT22;37240;50.104;20.010;2023-12-29T12:12:41;14.20;84.80
51175;DHT22;37240;50.104;20.010;2023-12-29T12:17:42;14.20;84.70
51175;DHT22;37240;50.104;20.010;2023-12-29T12:22:44;14.20;85.00
51175;DHT22;37240;50.104;20.010;2023-12-29T12:27:44;14.20;84.70
51175;DHT22;37240;50.104;20.010;2023-12-29T12:33:00;14.30;85.10
51175;DHT22;37240;50.104;20.010;2023-12-29T12:38:16;14.20;84.80
51175;DHT22;37240;50.104;20.010;2023-12-29T12:43:17;14.20;84.70
51175;DHT22;37240;50.104;20.010;2023-12-29T12:48:35;14.10;84.20
51175;DHT22;37240;50.104;20.010;2023-12-29T12:53:41;14.00;81.30
51175;DHT22;37240;50.104;20.010;2023-12-29T12:58:42;13.80;80.80
51175;DHT22;37240;50.104;20.010;2023-12-29T13:03:44;13.90;81.00
51175;DHT22;37240;50.104;20.010;2023-12-29T13:08:45;13.80;80.40
51175;DHT22;37240;50.104;20.010;2023-12-29T13:13:48;13.90;80.20
51175;DHT22;37240;50.104;20.010;2023-12-29T13:18:49;13.80;80.00
51175;DHT22;37240;50.104;20.010;2023-12-29T13:23:49;13.70;80.30
51175;DHT22;37240;50.104;20.010;2023-12-29T13:28:50;13.60;80.80
51175;DHT22;37240;50.104;20.010;2023-12-29T13:34:04;13.70;80.90
51175;DHT22;37240;50.104;20.010;2023-12-29T13:39:13;13.80;80.20
51175;DHT22;37240;50.104;20.010;2023-12-29T13:44:15;13.80;80.00
51175;DHT22;37240;50.104;20.010;2023-12-29T13:49:16;13.70;80.10
51175;DHT22;37240;50.104;20.010;2023-12-29T13:54:17;13.70;80.50
51175;DHT22;37240;50.104;20.010;2023-12-29T13:59:18;13.70;80.40
51175;DHT22;37240;50.104;20.010;2023-12-29T14:04:19;13.80;80.50
51175;DHT22;37240;50.104;20.010;2023-12-29T14:09:20;13.60;80.80
51175;DHT22;37240;50.104;20.010;2023-12-29T14:14:22;13.60;80.80
51175;DHT22;37240;50.104;20.010;2023-12-29T14:19:22;13.60;81.40
51175;DHT22;37240;50.104;20.010;2023-12-29T14:24:23;13.60;81.20
51175;DHT22;37240;50.104;20.010;2023-12-29T14:29:24;13.60;81.30
51175;DHT22;37240;50.104;20.010;2023-12-29T14:34:24;13.60;81.20
51175;DHT22;37240;50.104;20.010;2023-12-29T14:39:25;13.40;81.70
51175;DHT22;37240;50.104;20.010;2023-12-29T14:44:25;13.30;81.90
51175;DHT22;37240;50.104;20.010;2023-12-29T14:49:26;13.30;81.80
51175;DHT22;37240;50.104;20.010;2023-12-29T14:54:26;13.30;82.20
51175;DHT22;37240;50.104;20.010;2023-12-29T14:59:27;13.30;82.50
51175;DHT22;37240;50.104;20.010;2023-12-29T15:04:27;13.30;82.50
51175;DHT22;37240;50.104;20.010;2023-12-29T15:09:28;13.30;82.20
51175;DHT22;37240;50.104;20.010;2023-12-29T15:14:29;13.30;82.10
51175;DHT22;37240;50.104;20.010;2023-12-29T15:19:29;13.20;82.20
51175;DHT22;37240;50.104;20.010;2023-12-29T15:24:30;13.30;81.70
51175;DHT22;37240;50.104;20.010;2023-12-29T15:29:30;13.30;81.60
51175;DHT22;37240;50.104;20.010;2023-12-29T15:34:31;13.20;81.90
51175;DHT22;37240;50.104;20.010;2023-12-29T15:39:31;13.30;81.90
51175;DHT22;37240;50.104;20.010;2023-12-29T15:44:32;13.20;81.80
51175;DHT22;37240;50.104;20.010;2023-12-29T15:49:32;13.10;82.20
51175;DHT22;37240;50.104;20.010;2023-12-29T15:54:33;13.00;82.40
51175;DHT22;37240;50.104;20.010;2023-12-29T15:59:34;12.80;82.70
51175;DHT22;37240;50.104;20.010;2023-12-29T16:04:34;12.90;82.80
51175;DHT22;37240;50.104;20.010;2023-12-29T16:09:35;12.80;82.90
51175;DHT22;37240;50.104;20.010;2023-12-29T16:14:36;12.90;83.00
51175;DHT22;37240;50.104;20.010;2023-12-29T16:19:36;12.90;82.60
51175;DHT22;37240;50.104;20.010;2023-12-29T16:24:40;12.80;82.40
51175;DHT22;37240;50.104;20.010;2023-12-29T16:29:40;12.80;81.80
51175;DHT22;37240;50.104;20.010;2023-12-29T16:34:41;12.80;81.50
51175;DHT22;37240;50.104;20.010;2023-12-29T16:39:41;12.80;81.50
51175;DHT22;37240;50.104;20.010;2023-12-29T16:44:42;12.60;82.20
51175;DHT22;37240;50.104;20.010;2023-12-29T16:49:43;12.70;82.80
51175;DHT22;37240;50.104;20.010;2023-12-29T16:54:43;12.60;83.10
51175;DHT22;37240;50.104;20.010;2023-12-29T16:59:44;12.50;83.50
51175;DHT22;37240;50.104;20.010;2023-12-29T17:04:44;12.50;83.70
51175;DHT22;37240;50.104;20.010;2023-12-29T17:09:45;12.40;83.80
51175;DHT22;37240;50.104;20.010;2023-12-29T17:14:45;12.40;84.10
51175;DHT22;37240;50.104;20.010;2023-12-29T17:19:46;12.40;84.30
51175;DHT22;37240;50.104;20.010;2023-12-29T17:24:46;12.30;84.90
51175;DHT22;37240;50.104;20.010;2023-12-29T17:29:47;12.30;84.90
51175;DHT22;37240;50.104;20.010;2023-12-29T17:34:47;12.30;85.10
51175;DHT22;37240;50.104;20.010;2023-12-29T17:39:48;12.30;85.50
51175;DHT22;37240;50.104;20.010;2023-12-29T17:44:48;12.30;85.70
51175;DHT22;37240;50.104;20.010;2023-12-29T17:49:49;12.30;85.90
51175;DHT22;37240;50.104;20.010;2023-12-29T17:54:49;12.20;86.00
51175;DHT22;37240;50.104;20.010;2023-12-29T17:59:50;12.20;86.30
51175;DHT22;37240;50.104;20.010;2023-12-29T18:04:50;12.10;86.40
51175;DHT22;37240;50.104;20.010;2023-12-29T18:09:51;12.20;86.80
51175;DHT22;37240;50.104;20.010;2023-12-29T18:14:51;12.20;86.80
51175;DHT22;37240;50.104;20.010;2023-12-29T18:19:52;12.30;86.80
51175;DHT22;37240;50.104;20.010;2023-12-29T18:24:53;12.30;87.10
51175;DHT22;37240;50.104;20.010;2023-12-29T18:29:53;12.30;87.20
51175;DHT22;37240;50.104;20.010;2023-12-29T18:34:54;12.40;87.40
51175;DHT22;37240;50.104;20.010;2023-12-29T18:39:54;12.50;87.10
51175;DHT22;37240;50.104;20.010;2023-12-29T18:44:54;12.50;87.00
51175;DHT22;37240;50.104;20.010;2023-12-29T18:49:55;12.50;87.40
51175;DHT22;37240;50.104;20.010;2023-12-29T18:54:55;12.40;87.60
51175;DHT22;37240;50.104;20.010;2023-12-29T18:59:56;12.40;87.50
51175;DHT22;37240;50.104;20.010;2023-12-29T19:04:57;12.40;87.90
51175;DHT22;37240;50.104;20.010;2023-12-29T19:09:57;12.40;87.90
51175;DHT22;37240;50.104;20.010;2023-12-29T19:14:58;12.40;87.90
51175;DHT22;37240;50.104;20.010;2023-12-29T19:19:58;12.50;87.50
51175;DHT22;37240;50.104;20.010;2023-12-29T19:24:59;12.50;87.60
51175;DHT22;37240;50.104;20.010;2023-12-29T19:29:59;12.40;87.50
51175;DHT22;37240;50.104;20.010;2023-12-29T19:35:00;12.40;87.70
51175;DHT22;37240;50.104;20.010;2023-12-29T19:40:00;12.40;87.80
51175;DHT22;37240;50.104;20.010;2023-12-29T19:45:01;12.50;87.40
51175;DHT22;37240;50.104;20.010;2023-12-29T19:50:01;12.60;87.40
51175;DHT22;37240;50.104;20.010;2023-12-29T19:55:02;12.70;86.70
51175;DHT22;37240;50.104;20.010;2023-12-29T20:00:03;12.80;86.30
51175;DHT22;37240;50.104;20.010;2023-12-29T20:05:03;12.80;86.20
51175;DHT22;37240;50.104;20.010;2023-12-29T20:10:04;12.80;86.00
51175;DHT22;37240;50.104;20.010;2023-12-29T20:15:06;12.70;86.50
51175;DHT22;37240;50.104;20.010;2023-12-29T20:20:07;12.70;86.50
51175;DHT22;37240;50.104;20.010;2023-12-29T20:25:07;12.70;86.60
51175;DHT22;37240;50.104;20.010;2023-12-29T20:30:08;12.70;86.50
51175;DHT22;37240;50.104;20.010;2023-12-29T20:35:09;12.70;86.60
51175;DHT22;37240;50.104;20.010;2023-12-29T20:40:13;12.70;86.70
51175;DHT22;37240;50.104;20.010;2023-12-29T20:45:14;12.70;86.40
51175;DHT22;37240;50.104;20.010;2023-12-29T20:50:14;12.70;86.50
51175;DHT22;37240;50.104;20.010;2023-12-29T20:55:15;12.70;86.50
51175;DHT22;37240;50.104;20.010;2023-12-29T21:00:16;12.70;86.50
51175;DHT22;37240;50.104;20.010;2023-12-29T21:05:16;12.70;86.70
51175;DHT22;37240;50.104;20.010;2023-12-29T21:10:17;12.70;86.60
51175;DHT22;37240;50.104;20.010;2023-12-29T21:15:17;12.70;86.80
51175;DHT22;37240;50.104;20.010;2023-12-29T21:20:18;12.80;86.50
51175;DHT22;37240;50.104;20.010;2023-12-29T21:25:18;12.80;86.80
51175;DHT22;37240;50.104;20.010;2023-12-29T21:30:19;12.90;86.50
51175;DHT22;37240;50.104;20.010;2023-12-29T21:35:19;12.90;86.70
51175;DHT22;37240;50.104;20.010;2023-12-29T21:40:20;12.90;87.10
51175;DHT22;37240;50.104;20.010;2023-12-29T21:45:20;13.00;86.80
51175;DHT22;37240;50.104;20.010;2023-12-29T21:50:21;13.00;86.70
51175;DHT22;37240;50.104;20.010;2023-12-29T21:55:21;13.00;86.50
51175;DHT22;37240;50.104;20.010;2023-12-29T22:00:22;13.10;86.40
51175;DHT22;37240;50.104;20.010;2023-12-29T22:05:22;13.00;86.40
51175;DHT22;37240;50.104;20.010;2023-12-29T22:10:23;13.00;86.10
51175;DHT22;37240;50.104;20.010;2023-12-29T22:15:23;13.00;85.90
51175;DHT22;37240;50.104;20.010;2023-12-29T22:20:24;13.00;85.90
51175;DHT22;37240;50.104;20.010;2023-12-29T22:25:25;13.00;86.10
51175;DHT22;37240;50.104;20.010;2023-12-29T22:30:25;13.00;85.90
51175;DHT22;37240;50.104;20.010;2023-12-29T22:35:26;12.90;86.10
51175;DHT22;37240;50.104;20.010;2023-12-29T22:40:26;12.90;86.50
51175;DHT22;37240;50.104;20.010;2023-12-29T22:45:27;12.70;86.60
51175;DHT22;37240;50.104;20.010;2023-12-29T22:50:27;12.60;87.00
51175;DHT22;37240;50.104;20.010;2023-12-29T22:55:28;12.50;87.40
51175;DHT22;37240;50.104;20.010;2023-12-29T23:00:28;12.40;88.00
51175;DHT22;37240;50.104;20.010;2023-12-29T23:05:29;12.30;88.00
51175;DHT22;37240;50.104;20.010;2023-12-29T23:10:29;12.20;88.50
51175;DHT22;37240;50.104;20.010;2023-12-29T23:15:30;12.10;88.70
51175;DHT22;37240;50.104;20.010;2023-12-29T23:20:31;12.10;88.70
51175;DHT22;37240;50.104;20.010;2023-12-29T23:25:32;12.00;88.90
51175;DHT22;37240;50.104;20.010;2023-12-29T23:30:32;12.00;89.20
51175;DHT22;37240;50.104;20.010;2023-12-29T23:35:33;12.00;88.90
51175;DHT22;37240;50.104;20.010;2023-12-29T23:40:33;12.10;89.30
51175;DHT22;37240;50.104;20.010;2023-12-29T23:45:34;12.00;88.90
51175;DHT22;37240;50.104;20.010;2023-12-29T23:50:34;12.00;89.20
51175;DHT22;37240;50.104;20.010;2023-12-29T23:55:35;12.00;89.00
